createdAt,value
2023-01-20T00:02:27.049Z,11.90
2023-01-20T00:07:31.307Z,14.80
2023-01-20T00:12:34.148Z,13.17
2023-01-20T00:17:37.131Z,17.03
2023-01-20T00:22:42.386Z,14.03
2023-01-20T00:27:46.678Z,13.47
2023-01-20T00:32:49.597Z,16.43
2023-01-20T00:37:53.873Z,12.83
2023-01-20T00:42:56.789Z,17.30
2023-01-20T00:47:59.745Z,16.03
2023-01-20T00:53:04.024Z,16.53
2023-01-20T00:58:06.976Z,12.43
2023-01-20T01:03:11.205Z,17.20
2023-01-20T01:08:15.772Z,17.20
2023-01-20T01:13:18.677Z,20.20
2023-01-20T01:18:21.576Z,18.87
2023-01-20T01:23:25.922Z,19.13
2023-01-20T01:28:28.848Z,19.67
2023-01-20T01:33:32.022Z,18.80
2023-01-20T01:38:36.632Z,23.90
2023-01-20T01:43:40.782Z,22.43
2023-01-20T01:48:46.539Z,24.83
2023-01-20T01:53:57.488Z,18.93
2023-01-20T01:59:03.697Z,21.47
2023-01-20T02:04:12.266Z,27.03
2023-01-20T02:09:16.827Z,22.23
2023-01-20T02:14:23.721Z,26.63
2023-01-20T02:19:52.791Z,28.60
2023-01-20T02:25:34.827Z,35.73
2023-01-20T02:30:56.396Z,21.40
2023-01-20T02:36:04.570Z,27.00
2023-01-20T02:41:12.708Z,23.23
2023-01-20T02:46:21.331Z,26.50
2023-01-20T02:51:30.960Z,28.17
2023-01-20T02:56:35.893Z,27.73
2023-01-20T03:01:42.572Z,30.13
2023-01-20T03:06:50.758Z,25.00
2023-01-20T03:11:59.967Z,24.17
2023-01-20T03:17:03.139Z,23.43
2023-01-20T03:22:07.661Z,21.13
2023-01-20T03:27:11.491Z,21.60
2023-01-20T03:32:15.399Z,21.83
2023-01-20T03:37:19.831Z,23.37
2023-01-20T03:42:30.492Z,23.90
2023-01-20T03:47:52.757Z,22.30
2023-01-20T03:53:01.776Z,22.07
2023-01-20T03:58:08.726Z,23.30
2023-01-20T04:03:16.977Z,23.67
2023-01-20T04:08:25.711Z,28.03
2023-01-20T04:13:28.613Z,24.20
2023-01-20T04:18:31.555Z,21.67
2023-01-20T04:23:41.044Z,26.10
2023-01-20T04:28:43.941Z,23.70
2023-01-20T04:33:46.914Z,31.60
2023-01-20T04:38:51.229Z,24.33
2023-01-20T04:43:54.178Z,26.10
2023-01-20T04:48:57.120Z,25.67
2023-01-20T04:54:01.572Z,22.27
2023-01-20T04:59:04.880Z,27.10
2023-01-20T05:04:07.870Z,24.87
2023-01-20T05:09:15.207Z,24.00
2023-01-20T05:14:18.074Z,31.40
2023-01-20T05:19:21.001Z,30.40
2023-01-20T05:24:25.657Z,26.03
2023-01-20T05:29:28.700Z,27.80
2023-01-20T05:34:31.680Z,31.73
2023-01-20T05:39:35.963Z,32.00
2023-01-20T05:44:38.833Z,28.70
2023-01-20T05:49:41.889Z,23.70
2023-01-20T05:54:46.194Z,30.93
2023-01-20T05:59:49.633Z,25.40
2023-01-20T06:04:52.612Z,31.50
2023-01-20T06:09:56.876Z,28.00
2023-01-20T06:14:59.774Z,27.90
2023-01-20T06:20:04.329Z,25.57
2023-01-20T06:25:09.307Z,30.93
2023-01-20T06:30:12.890Z,31.93
2023-01-20T06:35:16.574Z,32.30
2023-01-20T06:40:21.172Z,28.70
2023-01-20T06:45:24.452Z,30.10
2023-01-20T06:50:27.445Z,26.77
2023-01-20T06:55:31.711Z,33.27
2023-01-20T07:00:34.668Z,31.37
2023-01-20T07:05:37.678Z,28.27
2023-01-20T07:10:42.229Z,29.50
2023-01-20T07:15:45.298Z,31.00
2023-01-20T07:20:48.282Z,34.70
2023-01-20T07:25:59.717Z,29.23
2023-01-20T07:31:04.942Z,35.83
2023-01-20T07:36:09.227Z,33.43
2023-01-20T07:41:16.399Z,28.23
2023-01-20T07:46:19.469Z,26.67
2023-01-20T07:51:22.473Z,30.63
2023-01-20T07:56:29.609Z,27.73
2023-01-20T08:01:33.745Z,27.50
2023-01-20T08:06:36.821Z,31.00
2023-01-20T08:11:41.339Z,38.20
2023-01-20T08:16:44.323Z,37.90
2023-01-20T08:21:47.396Z,38.63
2023-01-20T08:26:51.949Z,30.63
2023-01-20T08:31:55.022Z,28.37
2023-01-20T08:36:58.027Z,26.70
2023-01-20T08:42:02.281Z,23.80
2023-01-20T08:47:05.203Z,26.00
2023-01-20T08:52:08.159Z,27.57
2023-01-20T08:57:12.843Z,27.47
2023-01-20T09:02:15.810Z,34.87
2023-01-20T09:07:20.206Z,30.33
2023-01-20T09:12:24.477Z,29.60
2023-01-20T09:17:27.464Z,33.93
2023-01-20T09:22:30.286Z,29.80
2023-01-20T09:27:34.801Z,40.67
2023-01-20T09:32:37.701Z,32.87
2023-01-20T09:37:57.961Z,36.13
2023-01-20T09:43:32.316Z,35.20
2023-01-20T09:49:03.837Z,33.83
2023-01-20T09:54:15.539Z,38.27
2023-01-20T09:59:25.958Z,38.83
2023-01-20T10:04:34.778Z,39.33
2023-01-20T10:09:42.082Z,41.27
2023-01-20T10:14:53.853Z,39.60
2023-01-20T10:20:04.060Z,40.30
2023-01-20T10:25:13.420Z,45.53
2023-01-20T10:30:18.870Z,42.90
2023-01-20T10:35:25.352Z,39.27
2023-01-20T10:40:35.592Z,30.60
2023-01-20T10:45:55.286Z,32.67
2023-01-20T10:51:06.078Z,32.53
2023-01-20T10:56:26.920Z,38.30
2023-01-20T11:01:31.494Z,32.60
2023-01-20T11:06:34.521Z,38.60
2023-01-20T11:11:38.056Z,42.27
2023-01-20T11:16:46.755Z,32.03
2023-01-20T11:21:49.876Z,40.67
2023-01-20T11:26:52.943Z,40.10
2023-01-20T11:31:59.569Z,36.60
2023-01-20T11:37:18.834Z,42.30
2023-01-20T11:42:25.013Z,48.73
2023-01-20T11:47:31.417Z,46.47
2023-01-20T11:52:36.315Z,50.33
2023-01-20T11:57:40.411Z,44.13
2023-01-20T12:02:45.816Z,38.93
2023-01-20T12:07:53.330Z,45.93
2023-01-20T12:13:02.413Z,42.77
2023-01-20T12:18:13.992Z,48.60
2023-01-20T12:23:22.166Z,35.77
2023-01-20T12:28:32.202Z,45.37
2023-01-20T12:33:39.870Z,42.53
2023-01-20T12:38:54.472Z,38.90
2023-01-20T12:44:05.530Z,43.30
2023-01-20T12:49:37.119Z,39.80
2023-01-20T12:55:00.427Z,44.07
2023-01-20T13:00:31.371Z,42.20
2023-01-20T13:06:18.093Z,47.87
2023-01-20T13:11:31.919Z,45.13
2023-01-20T13:16:42.711Z,45.47
2023-01-20T13:22:02.861Z,46.60
2023-01-20T13:27:12.186Z,47.80
2023-01-20T13:32:29.497Z,45.70
2023-01-20T13:37:37.864Z,46.90
2023-01-20T13:42:51.995Z,46.53
2023-01-20T13:47:58.564Z,50.40
2023-01-20T13:53:14.857Z,41.80
2023-01-20T13:58:19.265Z,42.43
2023-01-20T14:03:24.728Z,51.60
2023-01-20T14:08:31.467Z,44.77
2023-01-20T14:13:34.460Z,54.63
2023-01-20T14:18:37.972Z,45.93
2023-01-20T14:23:42.639Z,41.27
2023-01-20T14:28:48.674Z,48.43
2023-01-20T14:33:57.935Z,51.57
2023-01-20T14:39:04.474Z,48.70
2023-01-20T14:44:18.032Z,37.03
2023-01-20T14:49:23.779Z,46.40
2023-01-20T14:54:44.074Z,48.40
2023-01-20T14:59:47.400Z,45.30
2023-01-20T15:04:50.357Z,52.10
2023-01-20T15:10:02.558Z,52.50
2023-01-20T15:15:21.903Z,43.43
2023-01-20T15:20:28.663Z,42.63
2023-01-20T15:25:38.022Z,43.10
2023-01-20T15:30:41.031Z,40.50
2023-01-20T15:35:43.956Z,46.17
2023-01-20T15:40:48.688Z,40.00
2023-01-20T15:45:51.604Z,44.17
2023-01-20T15:50:54.581Z,42.10
2023-01-20T15:56:00.422Z,41.73
2023-01-20T16:01:03.346Z,43.30
2023-01-20T16:06:12.826Z,41.63
2023-01-20T16:11:18.907Z,44.73
2023-01-20T16:16:23.664Z,47.97
2023-01-20T16:21:26.892Z,41.60
2023-01-20T16:26:34.948Z,49.57
2023-01-20T16:31:37.898Z,39.13
2023-01-20T16:36:40.869Z,38.50
2023-01-20T16:41:49.307Z,48.23
2023-01-20T16:46:52.280Z,41.47
2023-01-20T16:51:55.207Z,43.40
2023-01-20T16:56:59.515Z,39.97
2023-01-20T17:02:02.536Z,35.87
2023-01-20T17:07:05.847Z,46.47
2023-01-20T17:12:10.347Z,39.93
2023-01-20T17:17:13.255Z,41.50
2023-01-20T17:22:17.385Z,38.83
2023-01-20T17:27:21.816Z,39.23
2023-01-20T17:32:24.751Z,46.13
2023-01-20T17:37:27.689Z,47.80
2023-01-20T17:42:31.906Z,37.53
2023-01-20T17:47:34.766Z,40.77
2023-01-20T17:52:37.755Z,43.90
2023-01-20T17:57:42.057Z,44.53
2023-01-20T18:02:44.984Z,45.27
2023-01-20T18:07:49.541Z,47.67
2023-01-20T18:12:53.785Z,46.03
2023-01-20T18:17:57.110Z,42.93
2023-01-20T18:23:00.097Z,41.80
2023-01-20T18:28:04.464Z,38.03
2023-01-20T18:33:07.400Z,35.13
2023-01-20T18:38:10.373Z,28.73
2023-01-20T18:43:14.592Z,34.73
2023-01-20T18:48:17.859Z,32.43
2023-01-20T18:53:20.742Z,28.50
2023-01-20T18:58:27.389Z,33.03
2023-01-20T19:03:30.380Z,34.37
2023-01-20T19:08:33.752Z,31.43
2023-01-20T19:13:38.009Z,33.27
2023-01-20T19:18:41.313Z,32.73
2023-01-20T19:23:45.053Z,28.47
2023-01-20T19:28:56.817Z,27.37
2023-01-20T19:34:00.337Z,32.47
2023-01-20T19:39:03.716Z,35.80
2023-01-20T19:44:08.522Z,40.87
2023-01-20T19:49:12.178Z,35.50
2023-01-20T19:54:15.255Z,35.47
2023-01-20T19:59:19.552Z,37.27
2023-01-20T20:04:24.083Z,33.33
2023-01-20T20:09:27.011Z,35.03
2023-01-20T20:14:31.433Z,43.43
2023-01-20T20:19:35.037Z,43.80
2023-01-20T20:24:38.011Z,38.83
2023-01-20T20:29:42.338Z,32.30
2023-01-20T20:34:45.200Z,39.47
2023-01-20T20:39:48.089Z,35.23
2023-01-20T20:44:52.405Z,30.23
2023-01-20T20:49:55.319Z,28.80
2023-01-20T20:54:58.200Z,30.70
2023-01-20T21:00:02.486Z,28.13
2023-01-20T21:05:05.922Z,28.90
2023-01-20T21:10:11.410Z,36.33
2023-01-20T21:15:17.870Z,34.97
2023-01-20T21:20:20.719Z,33.63
2023-01-20T21:25:24.170Z,37.80
2023-01-20T21:30:28.628Z,37.63
2023-01-20T21:35:31.604Z,34.87
2023-01-20T21:40:34.922Z,37.10
2023-01-20T21:45:39.255Z,35.43
2023-01-20T21:50:59.499Z,37.80
2023-01-20T21:56:02.472Z,46.17
2023-01-20T22:01:06.966Z,41.63
2023-01-20T22:06:10.558Z,49.03
2023-01-20T22:11:13.650Z,49.40
2023-01-20T22:16:17.871Z,46.37
2023-01-20T22:21:21.771Z,44.33
2023-01-20T22:26:24.705Z,52.40
2023-01-20T22:31:30.230Z,46.83
2023-01-20T22:36:33.881Z,50.30
2023-01-20T22:41:36.761Z,46.53
2023-01-20T22:46:41.028Z,44.70
2023-01-20T22:51:43.909Z,40.93
2023-01-20T22:56:46.770Z,43.80
2023-01-20T23:01:51.090Z,37.80
2023-01-20T23:06:53.976Z,34.03
2023-01-20T23:11:56.834Z,38.33
2023-01-20T23:17:01.166Z,39.27
2023-01-20T23:22:04.091Z,46.17
2023-01-20T23:27:06.949Z,34.23
2023-01-20T23:32:11.373Z,40.47
2023-01-20T23:37:14.286Z,37.57
2023-01-20T23:42:18.817Z,41.87
2023-01-20T23:47:23.180Z,31.47
2023-01-20T23:52:26.954Z,29.10
2023-01-20T23:57:29.831Z,30.73
